Bejelentkezés
MINDENAUTO.HU

MINDEN
AUTÓ

autó

Info

MINDENAUTO.HU
/20181204-osszeutkozott-ket-auto-Biatorbagy-es-Soskut-kozott-444-hu

Összeütközött két autó Biatorbágy és Sóskút között - 444.hu

Összeütközött két autó Biatorbágy és Sóskút között - 444.hu Magyarországi új és használt járművek képes listája, ingyenes autó hirdetési lehetőség. Autó apróhirdetés. Járművek, autók, motorok, tehergépjárművek. Eladó Suzuki, Opel, Fiat, Mercedes, BMW, Audi, Nissan. Új és használtan importált kedvezményes áru autók. Autólízing, hitelnyújtás. Használtautó hu, minden eladó jármű hirdetések, hirdetésfeladás. Járműadatbázis, motor, haszongépjármű, busz, terepjáró és teherautó kínálat is.

Legújabb twittek

Gyere, támadjál, utánam jött a Vászonfehérítő utcárs!!!!!!!!!!!!!! A Café Molinari autója, 2018, Tesco, 10 alkalom… https://t.co/nC3hCjJKsL

EGKR 282050Z AUTO 25006KT 9999 NCD 08/06 Q1006=

Kedves Twitter-pajtik! Nem tudom, rajtam kívül van-e még valakinek 2003-as gyártmányú Renault Clio-ja, és tapasztal… https://t.co/Enzyl8VgUp

RT @euronewshu: Zöld utat kapott az Unióban a repülő autó https://t.co/GzxcQLcvIR

EGKR 281950Z AUTO 25005KT 9999 NCD 09/07 Q1005=

Zöld utat kapott az Unióban a repülő autó https://t.co/GzxcQLcvIR

EGKR 281850Z AUTO 26005KT 9999 NCD 09/07 Q1005=

6 Repülő autó, amely megváltoztatja a világot https://t.co/Bw2OUVMf5U @YouTube által

A WhatsApp és a Simple Pay (autó matrica vásárlás??) miért küld egyszerre (!) 1mp-en belül fizetési jóváhagyó kódot… https://t.co/PhSBtIh2H6

Mi van, pattogsz, rendőr? Még 500 milliót!!!!!!!! Ki az, aki szerint "el kell húznom"? Hová kell "elhúzni" és honn… https://t.co/WyShCSxccV

Ez az új olasz autó lehet az egyik legolcsóbb családi crossover a magyar piacon https://t.co/gcTYBhQB8f

@K_DramaIndo Auto nyanyi ~

@sixeulov AUTO NYANYI TATITUTTATITUT NEHH

auto nyanyi 😂😍 #HwangInYeop #18Again https://t.co/vProqu8Seh

@flapfloopdoop Wp? Auto nyari

Dít is de budget-versie van de Ferrari Monza SP2 https://t.co/lIGK0Vi2nc #auto #autoheadlines #autonieuws

@onlyjaesahi Twitter error pas buka ig liat ini auto teriakkk

ahol bámul 1 ablak szerintem, ott 3 évig Steelers autó is volt, menő Honda is.

Mindenen átmenő autó fiatal családoknak - https://t.co/YjIfV0c0Pv https://t.co/704nCoUEQc

Mindenen átmenő autó fiatal családoknak - https://t.co/YjIfV0c0Pv https://t.co/sJ6fSf9gJE

Egy átlagos autót naponta átlagosan 2-3 alkalommal indítunk be. Két választásunk van ebben az esetben: Az AGM és az… https://t.co/i2sADYsPwm

Az apró jármű olyan kicsi, hogy egy emberi hajszálban is elférne. https://t.co/EdobyGw07m

Az autóápolás nem csak a kiállításra szánt autóknál játszik nagy szerepet. Minden autótulajdonos számára fontos dol… https://t.co/1BC3lOqqrU

A megfelelő töltőinfrastruktúra kiépítése legalább olyan fontos, mint maga a jármű. https://t.co/yu9PFgjyW5

Nyomtávváltó szupervonat Kínából https://t.co/2fUJLn9jR7 Peking és Moszkva között óránként négyszáz kilométeres seb… https://t.co/N6nK6Dhogb

@heydorka @Utazz A vétkes jármű jelenleg is akadályt képez. Maradjon ott, és áttelepítem a töltőt. 😈🤷‍♂️

Megjelent egy újabb hír a neten, ami azért sok embert egyből lázba hozott. Az új Halálos Iramban című film 9. része… https://t.co/pZUmYHlDYU

Ti felhasználtátok már a megítélt támogatást? https://t.co/H3nHVxLZQV

Kétezer elektromos jármű megvásárlásának támogatásáról született már döntés https://t.co/iDQwghCByJ Tőle: @ecarshu

ITM: csaknem kétezer elektromos jármű megvásárlásának támogatásáról született már döntés https://t.co/hEPDq0onTp

Keresés
Összeütközött két autó Biatorbágy és Sóskút között  444.hu

Az egyik autó kigyulladt, a tűz átterjedt a másikra, így mire kiértek a tűzoltók, már mindkettő lángolt. Hárman utaztak a két autóban, mindannyian súlyosan ...